Tour Pomerol — 9V9183 — position and weather

sailwx.info

Track history (hours):
 
Tides and Currents Weather Stations Pressure Air Temp Water Temp Dewpoint Dewpoint Depression Visibility Wind Speed Wind Dir Waves Ship Positions

Tour Pomerol

Last reported at 2015-Feb-23 11:09 UTC. Time now 2015-May-28 01:57 UTC.
Position N 52°25' E 004°51'.
Warning: this ship's position is months out of date.

Length 120 m; draft 6.8 m.

Type: Tanker. MMSI: 563384980.

Date/timePositionNaut miles runAvg speedWind from/ knotsBaromVisibWave heightAir tempDewpointWater temp
2015-Feb-23 11:09N 52°25' E 004°51'0 0.0
2015-Feb-23 10:33N 52°25' E 004°51'0 0.0
2015-Feb-23 09:27N 52°25' E 004°51'0 0.0
2015-Feb-23 08:33N 52°25' E 004°51'0 0.0
2015-Feb-23 07:27N 52°25' E 004°51'0 0.0
2015-Feb-23 06:21N 52°25' E 004°51'0 0.0
2015-Feb-23 05:33N 52°25' E 004°51'0 0.0
2015-Feb-23 04:33N 52°25' E 004°51'0 0.0
2015-Feb-23 03:30N 52°25' E 004°51'0 0.0
2015-Feb-23 02:33N 52°25' E 004°51'0 0.0
2015-Feb-23 01:27N 52°25' E 004°51'0 0.0
2015-Feb-23 00:33N 52°25' E 004°51'0 0.0
2015-Feb-22 23:33N 52°25' E 004°51'0 0.0
2015-Feb-22 22:30N 52°25' E 004°51'0 0.0
2015-Feb-22 21:33N 52°25' E 004°51'0 0.0
2015-Feb-22 20:33N 52°25' E 004°51'0 0.0
2015-Feb-22 19:33N 52°25' E 004°51'0 0.0
2015-Feb-22 18:33N 52°25' E 004°51'0 0.0
2015-Feb-22 17:33N 52°25' E 004°51'0 0.0
2015-Feb-22 16:33N 52°25' E 004°51'0 0.0
2015-Feb-22 15:33N 52°25' E 004°51'0 0.0
2015-Feb-22 14:27N 52°25' E 004°51'0 0.0
2015-Feb-22 13:30N 52°25' E 004°51'0 0.0
2015-Feb-22 12:33N 52°25' E 004°51'0 0.0
2015-Feb-22 11:33N 52°25' E 004°51'0 0.0
2015-Feb-22 10:33N 52°25' E 004°51'0 0.0
2015-Feb-22 09:30N 52°25' E 004°51'0 0.0
2015-Feb-22 08:33N 52°25' E 004°51'0 0.0
2015-Feb-22 07:33N 52°25' E 004°51'0 0.0
2015-Feb-22 06:33N 52°25' E 004°51'0 0.0
2015-Feb-22 05:30N 52°25' E 004°51'0 0.0
2015-Feb-22 04:33N 52°25' E 004°51'0 0.0
2015-Feb-22 03:30N 52°25' E 004°51'0 0.0
2015-Feb-22 02:33N 52°25' E 004°51'0 0.0
2015-Feb-22 01:33N 52°25' E 004°51'0 0.0
2015-Feb-22 00:33N 52°25' E 004°51'0 0.0
2015-Feb-21 23:30N 52°25' E 004°51'0 0.0
2015-Feb-21 22:33N 52°25' E 004°51'0 0.0
2015-Feb-21 21:33N 52°25' E 004°51'0 0.0
2015-Feb-21 20:33N 52°25' E 004°51'0 0.0
2015-Feb-21 19:33N 52°25' E 004°51'0 0.0
2015-Feb-21 18:33N 52°25' E 004°51'0 0.0
2015-Feb-21 17:33N 52°25' E 004°51'0 0.0
2015-Feb-21 16:33N 52°25' E 004°51'0 0.0
2015-Feb-21 15:33N 52°25' E 004°51'0 0.0
2015-Feb-21 14:27N 52°25' E 004°51'0 0.0
2015-Feb-21 13:33N 52°25' E 004°51'0 0.0
2015-Feb-21 12:33N 52°25' E 004°51'0 0.0
2015-Feb-21 11:33N 52°25' E 004°51'0 0.0
2015-Feb-21 10:33N 52°25' E 004°51'0 0.3
2015-Feb-21 09:33N 52°25' E 004°50'8 7.5
2015-Feb-21 08:33N 52°28' E 004°39'2 2.1
2015-Feb-21 07:33N 52°28' E 004°35'9 8.8
2015-Feb-21 06:33N 52°28' E 004°21'1312.7
2015-Feb-21 05:33N 52°28' E 004°00'1413.8
2015-Feb-21 04:33N 52°23' E 003°39'6115.0
2015-Feb-21 00:28N 51°40' E 002°28'1213.3
2015-Feb-20 23:34N 51°31' E 002°15'1111.5
2015-Feb-20 22:34N 51°20' E 002°09'1110.7
2015-Feb-20 21:33N 51°12' E 001°59'10 9.7
2015-Feb-20 20:33N 51°06' E 001°47'10 9.6
2015-Feb-20 19:34N 50°59' E 001°36'  
2015-Feb-17 13:18N 38°47' W 009°56'7 8.7
2015-Feb-17 12:32N 38°41' W 009°56'9 8.4
2015-Feb-17 11:27N 38°32' W 009°56'8 8.1
2015-Feb-17 10:28N 38°24' W 009°56'  
Track history (hours):
 
Tides and Currents Weather Stations Pressure Air Temp Water Temp Dewpoint Dewpoint Depression Visibility Wind Speed Wind Dir Waves Ship Positions

Tour Pomerol

Last reported at 2015-Feb-23 11:09 UTC. Time now 2015-May-28 01:57 UTC.
Position N 52°25' E 004°51'.
Warning: this ship's position is months out of date.

Length 120 m; draft 6.8 m.

Type: Tanker. MMSI: 563384980.

Date/timePositionNaut miles runAvg speedWind from/ knotsBaromVisibWave heightAir tempDewpointWater temp
2015-Feb-23 11:09N 52°25' E 004°51'0 0.0
2015-Feb-23 10:33N 52°25' E 004°51'0 0.0
2015-Feb-23 09:27N 52°25' E 004°51'0 0.0
2015-Feb-23 08:33N 52°25' E 004°51'0 0.0
2015-Feb-23 07:27N 52°25' E 004°51'0 0.0
2015-Feb-23 06:21N 52°25' E 004°51'0 0.0
2015-Feb-23 05:33N 52°25' E 004°51'0 0.0
2015-Feb-23 04:33N 52°25' E 004°51'0 0.0
2015-Feb-23 03:30N 52°25' E 004°51'0 0.0
2015-Feb-23 02:33N 52°25' E 004°51'0 0.0
2015-Feb-23 01:27N 52°25' E 004°51'0 0.0
2015-Feb-23 00:33N 52°25' E 004°51'0 0.0
2015-Feb-22 23:33N 52°25' E 004°51'0 0.0
2015-Feb-22 22:30N 52°25' E 004°51'0 0.0
2015-Feb-22 21:33N 52°25' E 004°51'0 0.0
2015-Feb-22 20:33N 52°25' E 004°51'0 0.0
2015-Feb-22 19:33N 52°25' E 004°51'0 0.0
2015-Feb-22 18:33N 52°25' E 004°51'0 0.0
2015-Feb-22 17:33N 52°25' E 004°51'0 0.0
2015-Feb-22 16:33N 52°25' E 004°51'0 0.0
2015-Feb-22 15:33N 52°25' E 004°51'0 0.0
2015-Feb-22 14:27N 52°25' E 004°51'0 0.0
2015-Feb-22 13:30N 52°25' E 004°51'0 0.0
2015-Feb-22 12:33N 52°25' E 004°51'0 0.0
2015-Feb-22 11:33N 52°25' E 004°51'0 0.0
2015-Feb-22 10:33N 52°25' E 004°51'0 0.0
2015-Feb-22 09:30N 52°25' E 004°51'0 0.0
2015-Feb-22 08:33N 52°25' E 004°51'0 0.0
2015-Feb-22 07:33N 52°25' E 004°51'0 0.0
2015-Feb-22 06:33N 52°25' E 004°51'0 0.0
2015-Feb-22 05:30N 52°25' E 004°51'0 0.0
2015-Feb-22 04:33N 52°25' E 004°51'0 0.0
2015-Feb-22 03:30N 52°25' E 004°51'0 0.0
2015-Feb-22 02:33N 52°25' E 004°51'0 0.0
2015-Feb-22 01:33N 52°25' E 004°51'0 0.0
2015-Feb-22 00:33N 52°25' E 004°51'0 0.0
2015-Feb-21 23:30N 52°25' E 004°51'0 0.0
2015-Feb-21 22:33N 52°25' E 004°51'0 0.0
2015-Feb-21 21:33N 52°25' E 004°51'0 0.0
2015-Feb-21 20:33N 52°25' E 004°51'0 0.0
2015-Feb-21 19:33N 52°25' E 004°51'0 0.0
2015-Feb-21 18:33N 52°25' E 004°51'0 0.0
2015-Feb-21 17:33N 52°25' E 004°51'0 0.0
2015-Feb-21 16:33N 52°25' E 004°51'0 0.0
2015-Feb-21 15:33N 52°25' E 004°51'0 0.0
2015-Feb-21 14:27N 52°25' E 004°51'0 0.0
2015-Feb-21 13:33N 52°25' E 004°51'0 0.0
2015-Feb-21 12:33N 52°25' E 004°51'0 0.0
2015-Feb-21 11:33N 52°25' E 004°51'0 0.0
2015-Feb-21 10:33N 52°25' E 004°51'0 0.3
2015-Feb-21 09:33N 52°25' E 004°50'8 7.5
2015-Feb-21 08:33N 52°28' E 004°39'2 2.1
2015-Feb-21 07:33N 52°28' E 004°35'9 8.8
2015-Feb-21 06:33N 52°28' E 004°21'1312.7
2015-Feb-21 05:33N 52°28' E 004°00'1413.8
2015-Feb-21 04:33N 52°23' E 003°39'6115.0
2015-Feb-21 00:28N 51°40' E 002°28'1213.3
2015-Feb-20 23:34N 51°31' E 002°15'1111.5
2015-Feb-20 22:34N 51°20' E 002°09'1110.7
2015-Feb-20 21:33N 51°12' E 001°59'10 9.7
2015-Feb-20 20:33N 51°06' E 001°47'10 9.6
2015-Feb-20 19:34N 50°59' E 001°36'  
2015-Feb-17 13:18N 38°47' W 009°56'7 8.7
2015-Feb-17 12:32N 38°41' W 009°56'9 8.4
2015-Feb-17 11:27N 38°32' W 009°56'8 8.1
2015-Feb-17 10:28N 38°24' W 009°56'  

Dump ship's entire track history